sensor_id;sensor_type;location;lat;lon;timestamp;temperature;humidity
4399;DHT22;2213;49.720;7.296;2023-07-02T00:00:51;15.20;99.90
4399;DHT22;2213;49.720;7.296;2023-07-02T00:03:19;15.20;99.90
4399;DHT22;2213;49.720;7.296;2023-07-02T00:05:49;15.20;99.90
4399;DHT22;2213;49.720;7.296;2023-07-02T00:08:21;15.10;99.90
4399;DHT22;2213;49.720;7.296;2023-07-02T00:10:53;15.10;99.90
4399;DHT22;2213;49.720;7.296;2023-07-02T00:13:22;15.10;99.90
4399;DHT22;2213;49.720;7.296;2023-07-02T00:15:51;15.10;99.90
4399;DHT22;2213;49.720;7.296;2023-07-02T00:18:20;15.10;99.90
4399;DHT22;2213;49.720;7.296;2023-07-02T00:20:50;15.10;99.90
4399;DHT22;2213;49.720;7.296;2023-07-02T00:23:18;15.00;99.90
4399;DHT22;2213;49.720;7.296;2023-07-02T00:25:48;15.00;99.90
4399;DHT22;2213;49.720;7.296;2023-07-02T00:28:18;15.00;99.90
4399;DHT22;2213;49.720;7.296;2023-07-02T00:30:47;15.00;99.90
4399;DHT22;2213;49.720;7.296;2023-07-02T00:33:16;14.90;99.90
4399;DHT22;2213;49.720;7.296;2023-07-02T00:35:45;14.90;99.90
4399;DHT22;2213;49.720;7.296;2023-07-02T00:38:13;14.90;99.90
4399;DHT22;2213;49.720;7.296;2023-07-02T00:40:42;14.80;99.90
4399;DHT22;2213;49.720;7.296;2023-07-02T00:43:11;14.80;99.90
4399;DHT22;2213;49.720;7.296;2023-07-02T00:45:41;14.80;99.90
4399;DHT22;2213;49.720;7.296;2023-07-02T00:48:09;14.80;99.90
4399;DHT22;2213;49.720;7.296;2023-07-02T00:50:39;14.70;99.90
4399;DHT22;2213;49.720;7.296;2023-07-02T00:53:09;14.70;99.90
4399;DHT22;2213;49.720;7.296;2023-07-02T00:55:37;14.70;99.90
4399;DHT22;2213;49.720;7.296;2023-07-02T00:58:07;14.70;99.90
4399;DHT22;2213;49.720;7.296;2023-07-02T01:00:37;14.70;99.90
4399;DHT22;2213;49.720;7.296;2023-07-02T01:03:08;14.70;99.90
4399;DHT22;2213;49.720;7.296;2023-07-02T01:05:37;14.60;99.90
4399;DHT22;2213;49.720;7.296;2023-07-02T01:08:08;14.60;99.90
4399;DHT22;2213;49.720;7.296;2023-07-02T01:10:39;14.60;99.90
4399;DHT22;2213;49.720;7.296;2023-07-02T01:13:14;14.60;99.90
4399;DHT22;2213;49.720;7.296;2023-07-02T01:15:47;14.50;99.90
4399;DHT22;2213;49.720;7.296;2023-07-02T01:18:18;14.50;99.90
4399;DHT22;2213;49.720;7.296;2023-07-02T01:20:49;14.50;99.90
4399;DHT22;2213;49.720;7.296;2023-07-02T01:23:20;14.40;99.90
4399;DHT22;2213;49.720;7.296;2023-07-02T01:25:51;14.40;99.90
4399;DHT22;2213;49.720;7.296;2023-07-02T01:28:21;14.40;99.90
4399;DHT22;2213;49.720;7.296;2023-07-02T01:30:51;14.30;99.90
4399;DHT22;2213;49.720;7.296;2023-07-02T01:33:19;14.30;99.90
4399;DHT22;2213;49.720;7.296;2023-07-02T01:35:49;14.30;99.90
4399;DHT22;2213;49.720;7.296;2023-07-02T01:38:18;14.30;99.90
4399;DHT22;2213;49.720;7.296;2023-07-02T01:40:48;14.30;99.90
4399;DHT22;2213;49.720;7.296;2023-07-02T01:43:17;14.30;99.90
4399;DHT22;2213;49.720;7.296;2023-07-02T01:45:45;14.20;99.90
4399;DHT22;2213;49.720;7.296;2023-07-02T01:48:15;14.20;99.90
4399;DHT22;2213;49.720;7.296;2023-07-02T01:50:44;14.20;99.90
4399;DHT22;2213;49.720;7.296;2023-07-02T01:53:15;14.10;99.90
4399;DHT22;2213;49.720;7.296;2023-07-02T01:55:45;14.10;99.90
4399;DHT22;2213;49.720;7.296;2023-07-02T01:58:14;14.10;99.90
4399;DHT22;2213;49.720;7.296;2023-07-02T02:00:43;14.10;99.90
4399;DHT22;2213;49.720;7.296;2023-07-02T02:03:11;14.00;99.90
4399;DHT22;2213;49.720;7.296;2023-07-02T02:05:40;14.10;99.90
4399;DHT22;2213;49.720;7.296;2023-07-02T02:08:09;14.00;99.90
4399;DHT22;2213;49.720;7.296;2023-07-02T02:10:40;14.00;99.90
4399;DHT22;2213;49.720;7.296;2023-07-02T02:13:10;14.00;99.90
4399;DHT22;2213;49.720;7.296;2023-07-02T02:15:38;13.90;99.90
4399;DHT22;2213;49.720;7.296;2023-07-02T02:18:08;13.90;99.90
4399;DHT22;2213;49.720;7.296;2023-07-02T02:20:37;13.90;99.90
4399;DHT22;2213;49.720;7.296;2023-07-02T02:23:06;13.80;99.90
4399;DHT22;2213;49.720;7.296;2023-07-02T02:25:35;13.80;99.90
4399;DHT22;2213;49.720;7.296;2023-07-02T02:28:05;13.80;99.90
4399;DHT22;2213;49.720;7.296;2023-07-02T02:30:34;13.80;99.90
4399;DHT22;2213;49.720;7.296;2023-07-02T02:33:03;13.80;99.90
4399;DHT22;2213;49.720;7.296;2023-07-02T02:35:33;13.70;99.90
4399;DHT22;2213;49.720;7.296;2023-07-02T02:38:03;13.70;99.90
4399;DHT22;2213;49.720;7.296;2023-07-02T02:40:32;13.70;99.90
4399;DHT22;2213;49.720;7.296;2023-07-02T02:43:01;13.70;99.90
4399;DHT22;2213;49.720;7.296;2023-07-02T02:45:31;13.60;99.90
4399;DHT22;2213;49.720;7.296;2023-07-02T02:48:00;13.60;99.90
4399;DHT22;2213;49.720;7.296;2023-07-02T02:50:29;13.60;99.90
4399;DHT22;2213;49.720;7.296;2023-07-02T02:53:01;13.60;99.90
4399;DHT22;2213;49.720;7.296;2023-07-02T02:55:30;13.60;99.90
4399;DHT22;2213;49.720;7.296;2023-07-02T02:57:58;13.60;99.90
4399;DHT22;2213;49.720;7.296;2023-07-02T03:00:28;13.60;99.90
4399;DHT22;2213;49.720;7.296;2023-07-02T03:02:58;13.60;99.90
4399;DHT22;2213;49.720;7.296;2023-07-02T03:05:29;13.60;99.90
4399;DHT22;2213;49.720;7.296;2023-07-02T03:07:58;13.60;99.90
4399;DHT22;2213;49.720;7.296;2023-07-02T03:10:27;13.60;99.90
4399;DHT22;2213;49.720;7.296;2023-07-02T03:12:56;13.60;99.90
4399;DHT22;2213;49.720;7.296;2023-07-02T03:15:25;13.60;99.90
4399;DHT22;2213;49.720;7.296;2023-07-02T03:17:55;13.60;99.90
4399;DHT22;2213;49.720;7.296;2023-07-02T03:20:26;13.60;99.90
4399;DHT22;2213;49.720;7.296;2023-07-02T03:22:55;13.60;99.90
4399;DHT22;2213;49.720;7.296;2023-07-02T03:25:25;13.60;99.90
4399;DHT22;2213;49.720;7.296;2023-07-02T03:27:55;13.70;99.90
4399;DHT22;2213;49.720;7.296;2023-07-02T03:30:24;13.70;99.90
4399;DHT22;2213;49.720;7.296;2023-07-02T03:32:53;13.70;99.90
4399;DHT22;2213;49.720;7.296;2023-07-02T03:35:26;13.70;99.90
4399;DHT22;2213;49.720;7.296;2023-07-02T03:37:55;13.60;99.90
4399;DHT22;2213;49.720;7.296;2023-07-02T03:40:24;13.70;99.90
4399;DHT22;2213;49.720;7.296;2023-07-02T03:42:53;13.60;99.90
4399;DHT22;2213;49.720;7.296;2023-07-02T03:45:21;13.60;99.90
4399;DHT22;2213;49.720;7.296;2023-07-02T03:47:50;13.60;99.90
4399;DHT22;2213;49.720;7.296;2023-07-02T03:50:19;13.60;99.90
4399;DHT22;2213;49.720;7.296;2023-07-02T03:52:49;13.60;99.90
4399;DHT22;2213;49.720;7.296;2023-07-02T03:55:19;13.60;99.90
4399;DHT22;2213;49.720;7.296;2023-07-02T03:57:49;13.60;99.90
4399;DHT22;2213;49.720;7.296;2023-07-02T04:00:19;13.60;99.90
4399;DHT22;2213;49.720;7.296;2023-07-02T04:02:49;13.60;99.90
4399;DHT22;2213;49.720;7.296;2023-07-02T04:05:20;13.60;99.90
4399;DHT22;2213;49.720;7.296;2023-07-02T04:07:53;13.60;99.90
4399;DHT22;2213;49.720;7.296;2023-07-02T04:10:24;13.60;99.90
4399;DHT22;2213;49.720;7.296;2023-07-02T04:12:54;13.60;99.90
4399;DHT22;2213;49.720;7.296;2023-07-02T04:15:22;13.60;99.90
4399;DHT22;2213;49.720;7.296;2023-07-02T04:17:54;13.60;99.90
4399;DHT22;2213;49.720;7.296;2023-07-02T04:20:24;13.70;99.90
4399;DHT22;2213;49.720;7.296;2023-07-02T04:22:54;13.70;99.90
4399;DHT22;2213;49.720;7.296;2023-07-02T04:25:25;13.70;99.90
4399;DHT22;2213;49.720;7.296;2023-07-02T04:28:13;13.70;99.90
4399;DHT22;2213;49.720;7.296;2023-07-02T04:30:43;13.80;99.90
4399;DHT22;2213;49.720;7.296;2023-07-02T04:33:15;13.80;99.90
4399;DHT22;2213;49.720;7.296;2023-07-02T04:35:44;13.90;99.90
4399;DHT22;2213;49.720;7.296;2023-07-02T04:38:16;13.80;99.90
4399;DHT22;2213;49.720;7.296;2023-07-02T04:40:45;13.80;99.90
4399;DHT22;2213;49.720;7.296;2023-07-02T04:43:15;13.90;99.90
4399;DHT22;2213;49.720;7.296;2023-07-02T04:45:45;13.90;99.90
4399;DHT22;2213;49.720;7.296;2023-07-02T04:48:18;13.90;99.90
4399;DHT22;2213;49.720;7.296;2023-07-02T04:50:50;13.90;99.90
4399;DHT22;2213;49.720;7.296;2023-07-02T04:53:20;14.00;99.90
4399;DHT22;2213;49.720;7.296;2023-07-02T04:55:53;14.00;99.90
4399;DHT22;2213;49.720;7.296;2023-07-02T04:58:26;14.00;99.90
4399;DHT22;2213;49.720;7.296;2023-07-02T05:00:58;14.00;99.90
4399;DHT22;2213;49.720;7.296;2023-07-02T05:03:27;14.00;99.90
4399;DHT22;2213;49.720;7.296;2023-07-02T05:05:57;14.00;99.90
4399;DHT22;2213;49.720;7.296;2023-07-02T05:08:29;14.10;99.90
4399;DHT22;2213;49.720;7.296;2023-07-02T05:10:59;14.10;99.90
4399;DHT22;2213;49.720;7.296;2023-07-02T05:13:30;14.10;99.90
4399;DHT22;2213;49.720;7.296;2023-07-02T05:16:01;14.20;99.90
4399;DHT22;2213;49.720;7.296;2023-07-02T05:18:31;14.20;99.90
4399;DHT22;2213;49.720;7.296;2023-07-02T05:21:02;14.20;99.90
4399;DHT22;2213;49.720;7.296;2023-07-02T05:23:37;14.30;99.90
4399;DHT22;2213;49.720;7.296;2023-07-02T05:26:08;14.30;99.90
4399;DHT22;2213;49.720;7.296;2023-07-02T05:28:37;14.40;99.90
4399;DHT22;2213;49.720;7.296;2023-07-02T05:31:07;14.40;99.90
4399;DHT22;2213;49.720;7.296;2023-07-02T05:33:36;14.40;99.90
4399;DHT22;2213;49.720;7.296;2023-07-02T05:36:07;14.50;99.90
4399;DHT22;2213;49.720;7.296;2023-07-02T05:38:37;14.50;99.90
4399;DHT22;2213;49.720;7.296;2023-07-02T05:41:06;14.50;99.90
4399;DHT22;2213;49.720;7.296;2023-07-02T05:43:35;14.60;99.90
4399;DHT22;2213;49.720;7.296;2023-07-02T05:46:03;14.60;99.90
4399;DHT22;2213;49.720;7.296;2023-07-02T05:48:32;14.70;99.90
4399;DHT22;2213;49.720;7.296;2023-07-02T05:51:01;14.70;99.90
4399;DHT22;2213;49.720;7.296;2023-07-02T05:53:31;14.80;99.90
4399;DHT22;2213;49.720;7.296;2023-07-02T05:56:01;14.70;99.90
4399;DHT22;2213;49.720;7.296;2023-07-02T05:58:30;14.80;99.90
4399;DHT22;2213;49.720;7.296;2023-07-02T06:01:14;14.90;99.90
4399;DHT22;2213;49.720;7.296;2023-07-02T06:03:42;14.90;99.90
4399;DHT22;2213;49.720;7.296;2023-07-02T06:06:12;14.90;99.90
4399;DHT22;2213;49.720;7.296;2023-07-02T06:08:41;15.00;99.90
4399;DHT22;2213;49.720;7.296;2023-07-02T06:11:11;15.00;99.90
4399;DHT22;2213;49.720;7.296;2023-07-02T06:13:41;15.00;99.90
4399;DHT22;2213;49.720;7.296;2023-07-02T06:16:10;15.00;99.90
4399;DHT22;2213;49.720;7.296;2023-07-02T06:18:39;15.10;99.90
4399;DHT22;2213;49.720;7.296;2023-07-02T06:21:09;15.10;99.90
4399;DHT22;2213;49.720;7.296;2023-07-02T06:23:41;15.20;99.90
4399;DHT22;2213;49.720;7.296;2023-07-02T06:26:12;15.20;99.90
4399;DHT22;2213;49.720;7.296;2023-07-02T06:28:41;15.20;99.90
4399;DHT22;2213;49.720;7.296;2023-07-02T06:31:10;15.30;99.90
4399;DHT22;2213;49.720;7.296;2023-07-02T06:33:40;15.40;99.90
4399;DHT22;2213;49.720;7.296;2023-07-02T06:36:09;15.40;99.90
4399;DHT22;2213;49.720;7.296;2023-07-02T06:38:39;15.50;99.90
4399;DHT22;2213;49.720;7.296;2023-07-02T06:41:08;15.60;99.90
4399;DHT22;2213;49.720;7.296;2023-07-02T06:43:41;15.70;99.90
4399;DHT22;2213;49.720;7.296;2023-07-02T06:46:11;15.70;99.90
4399;DHT22;2213;49.720;7.296;2023-07-02T06:48:40;15.80;99.90
4399;DHT22;2213;49.720;7.296;2023-07-02T06:51:09;15.80;99.90
4399;DHT22;2213;49.720;7.296;2023-07-02T06:53:41;15.80;99.90
4399;DHT22;2213;49.720;7.296;2023-07-02T06:56:10;15.90;99.90
4399;DHT22;2213;49.720;7.296;2023-07-02T06:58:42;16.00;99.90
4399;DHT22;2213;49.720;7.296;2023-07-02T07:01:11;15.90;99.90
4399;DHT22;2213;49.720;7.296;2023-07-02T07:03:40;16.10;99.90
4399;DHT22;2213;49.720;7.296;2023-07-02T07:06:08;16.10;99.90
4399;DHT22;2213;49.720;7.296;2023-07-02T07:08:37;16.10;99.90
4399;DHT22;2213;49.720;7.296;2023-07-02T07:11:07;16.20;99.90
4399;DHT22;2213;49.720;7.296;2023-07-02T07:13:36;16.30;99.90
4399;DHT22;2213;49.720;7.296;2023-07-02T07:16:07;16.40;99.90
4399;DHT22;2213;49.720;7.296;2023-07-02T07:18:37;16.40;99.90
4399;DHT22;2213;49.720;7.296;2023-07-02T07:21:06;16.50;99.90
4399;DHT22;2213;49.720;7.296;2023-07-02T07:23:34;16.40;99.90
4399;DHT22;2213;49.720;7.296;2023-07-02T07:26:03;16.40;99.90
4399;DHT22;2213;49.720;7.296;2023-07-02T07:28:32;16.50;99.90
4399;DHT22;2213;49.720;7.296;2023-07-02T07:31:01;16.60;99.90
4399;DHT22;2213;49.720;7.296;2023-07-02T07:33:32;16.60;99.90
4399;DHT22;2213;49.720;7.296;2023-07-02T07:36:04;16.70;99.90
4399;DHT22;2213;49.720;7.296;2023-07-02T07:38:32;16.70;99.90
4399;DHT22;2213;49.720;7.296;2023-07-02T07:41:01;16.80;99.90
4399;DHT22;2213;49.720;7.296;2023-07-02T07:43:29;16.90;99.90
4399;DHT22;2213;49.720;7.296;2023-07-02T07:45:59;16.90;99.90
4399;DHT22;2213;49.720;7.296;2023-07-02T07:48:28;16.90;99.90
4399;DHT22;2213;49.720;7.296;2023-07-02T07:50:58;17.00;99.90
4399;DHT22;2213;49.720;7.296;2023-07-02T07:53:27;17.00;99.90
4399;DHT22;2213;49.720;7.296;2023-07-02T07:55:56;17.00;99.90
4399;DHT22;2213;49.720;7.296;2023-07-02T07:58:25;17.00;99.90
4399;DHT22;2213;49.720;7.296;2023-07-02T08:00:54;17.10;99.90
4399;DHT22;2213;49.720;7.296;2023-07-02T08:03:23;17.20;99.90
4399;DHT22;2213;49.720;7.296;2023-07-02T08:05:52;17.20;99.90
4399;DHT22;2213;49.720;7.296;2023-07-02T08:08:22;17.30;99.90
4399;DHT22;2213;49.720;7.296;2023-07-02T08:10:51;17.30;99.90
4399;DHT22;2213;49.720;7.296;2023-07-02T08:13:19;17.40;99.90
4399;DHT22;2213;49.720;7.296;2023-07-02T08:15:48;17.40;99.90
4399;DHT22;2213;49.720;7.296;2023-07-02T08:18:17;17.50;99.90
4399;DHT22;2213;49.720;7.296;2023-07-02T08:20:46;17.50;99.90
4399;DHT22;2213;49.720;7.296;2023-07-02T08:23:15;17.60;99.90
4399;DHT22;2213;49.720;7.296;2023-07-02T08:25:45;17.70;99.80
4399;DHT22;2213;49.720;7.296;2023-07-02T08:28:14;17.70;99.90
4399;DHT22;2213;49.720;7.296;2023-07-02T08:30:43;17.70;99.90
4399;DHT22;2213;49.720;7.296;2023-07-02T08:33:13;17.70;99.90
4399;DHT22;2213;49.720;7.296;2023-07-02T08:35:41;17.60;99.90
4399;DHT22;2213;49.720;7.296;2023-07-02T08:38:10;17.60;99.90
4399;DHT22;2213;49.720;7.296;2023-07-02T08:40:38;17.60;99.90
4399;DHT22;2213;49.720;7.296;2023-07-02T08:43:09;17.70;99.90
4399;DHT22;2213;49.720;7.296;2023-07-02T08:45:40;17.60;99.90
4399;DHT22;2213;49.720;7.296;2023-07-02T08:48:09;17.80;99.90
4399;DHT22;2213;49.720;7.296;2023-07-02T08:50:38;17.90;99.90
4399;DHT22;2213;49.720;7.296;2023-07-02T08:53:07;17.90;99.90
4399;DHT22;2213;49.720;7.296;2023-07-02T08:55:36;18.00;99.90
4399;DHT22;2213;49.720;7.296;2023-07-02T08:58:04;18.00;99.90
4399;DHT22;2213;49.720;7.296;2023-07-02T09:00:34;18.10;99.90
4399;DHT22;2213;49.720;7.296;2023-07-02T09:03:14;18.10;99.90
4399;DHT22;2213;49.720;7.296;2023-07-02T09:05:50;18.10;99.80
4399;DHT22;2213;49.720;7.296;2023-07-02T09:08:24;18.10;99.80
4399;DHT22;2213;49.720;7.296;2023-07-02T09:10:53;18.20;99.10
4399;DHT22;2213;49.720;7.296;2023-07-02T09:13:23;18.10;99.30
4399;DHT22;2213;49.720;7.296;2023-07-02T09:15:53;18.10;99.20
4399;DHT22;2213;49.720;7.296;2023-07-02T09:18:23;18.20;99.10
4399;DHT22;2213;49.720;7.296;2023-07-02T09:20:53;18.30;98.70
4399;DHT22;2213;49.720;7.296;2023-07-02T09:23:31;18.30;98.60
4399;DHT22;2213;49.720;7.296;2023-07-02T09:26:02;18.40;98.10
4399;DHT22;2213;49.720;7.296;2023-07-02T09:28:31;18.40;98.20
4399;DHT22;2213;49.720;7.296;2023-07-02T09:31:01;18.30;98.30
4399;DHT22;2213;49.720;7.296;2023-07-02T09:33:30;18.30;97.50
4399;DHT22;2213;49.720;7.296;2023-07-02T09:35:59;18.30;98.10
4399;DHT22;2213;49.720;7.296;2023-07-02T09:38:28;18.40;98.50
4399;DHT22;2213;49.720;7.296;2023-07-02T09:40:58;18.40;98.30
4399;DHT22;2213;49.720;7.296;2023-07-02T09:43:27;18.40;98.20
4399;DHT22;2213;49.720;7.296;2023-07-02T09:45:59;18.30;98.60
4399;DHT22;2213;49.720;7.296;2023-07-02T09:48:33;18.30;98.50
4399;DHT22;2213;49.720;7.296;2023-07-02T09:51:04;18.40;98.60
4399;DHT22;2213;49.720;7.296;2023-07-02T09:53:33;18.30;98.60
4399;DHT22;2213;49.720;7.296;2023-07-02T09:56:03;18.30;98.80
4399;DHT22;2213;49.720;7.296;2023-07-02T09:58:32;18.30;98.80
4399;DHT22;2213;49.720;7.296;2023-07-02T10:01:02;18.30;98.70
4399;DHT22;2213;49.720;7.296;2023-07-02T10:03:32;18.40;98.70
4399;DHT22;2213;49.720;7.296;2023-07-02T10:06:05;18.40;98.10
4399;DHT22;2213;49.720;7.296;2023-07-02T10:08:34;18.50;97.80
4399;DHT22;2213;49.720;7.296;2023-07-02T10:11:11;18.50;97.20
4399;DHT22;2213;49.720;7.296;2023-07-02T10:13:40;18.60;97.50
4399;DHT22;2213;49.720;7.296;2023-07-02T10:16:10;18.60;97.70
4399;DHT22;2213;49.720;7.296;2023-07-02T10:18:39;18.60;97.70
4399;DHT22;2213;49.720;7.296;2023-07-02T10:21:15;18.70;97.90
4399;DHT22;2213;49.720;7.296;2023-07-02T10:23:45;18.70;97.70
4399;DHT22;2213;49.720;7.296;2023-07-02T10:26:15;18.80;97.80
4399;DHT22;2213;49.720;7.296;2023-07-02T10:28:56;18.80;97.80
4399;DHT22;2213;49.720;7.296;2023-07-02T10:31:27;19.00;97.40
4399;DHT22;2213;49.720;7.296;2023-07-02T10:33:57;18.90;96.70
4399;DHT22;2213;49.720;7.296;2023-07-02T10:36:26;19.00;96.20
4399;DHT22;2213;49.720;7.296;2023-07-02T10:39:01;19.10;96.50
4399;DHT22;2213;49.720;7.296;2023-07-02T10:41:33;19.00;95.90
4399;DHT22;2213;49.720;7.296;2023-07-02T10:44:06;19.10;95.80
4399;DHT22;2213;49.720;7.296;2023-07-02T10:46:44;19.20;95.10
4399;DHT22;2213;49.720;7.296;2023-07-02T10:49:14;19.20;94.90
4399;DHT22;2213;49.720;7.296;2023-07-02T10:51:56;19.20;94.80
4399;DHT22;2213;49.720;7.296;2023-07-02T10:54:25;19.20;94.80
4399;DHT22;2213;49.720;7.296;2023-07-02T10:56:57;19.20;95.20
4399;DHT22;2213;49.720;7.296;2023-07-02T10:59:27;19.20;95.30
4399;DHT22;2213;49.720;7.296;2023-07-02T11:01:57;19.30;95.70
4399;DHT22;2213;49.720;7.296;2023-07-02T11:04:29;19.30;94.70
4399;DHT22;2213;49.720;7.296;2023-07-02T11:06:58;19.30;94.60
4399;DHT22;2213;49.720;7.296;2023-07-02T11:09:27;19.30;94.90
4399;DHT22;2213;49.720;7.296;2023-07-02T11:11:58;19.30;94.80
4399;DHT22;2213;49.720;7.296;2023-07-02T11:14:29;19.30;95.10
4399;DHT22;2213;49.720;7.296;2023-07-02T11:17:03;19.30;95.30
4399;DHT22;2213;49.720;7.296;2023-07-02T11:19:33;19.50;94.70
4399;DHT22;2213;49.720;7.296;2023-07-02T11:22:02;19.50;94.30
4399;DHT22;2213;49.720;7.296;2023-07-02T11:24:33;19.50;94.10
4399;DHT22;2213;49.720;7.296;2023-07-02T11:27:05;19.60;93.70
4399;DHT22;2213;49.720;7.296;2023-07-02T11:29:35;19.60;92.90
4399;DHT22;2213;49.720;7.296;2023-07-02T11:32:09;19.70;92.60
4399;DHT22;2213;49.720;7.296;2023-07-02T11:34:39;19.70;92.90
4399;DHT22;2213;49.720;7.296;2023-07-02T11:37:08;19.70;93.10
4399;DHT22;2213;49.720;7.296;2023-07-02T11:39:36;19.70;93.20
4399;DHT22;2213;49.720;7.296;2023-07-02T11:42:05;19.90;93.50
4399;DHT22;2213;49.720;7.296;2023-07-02T11:44:35;19.70;93.10
4399;DHT22;2213;49.720;7.296;2023-07-02T11:47:04;19.80;93.00
4399;DHT22;2213;49.720;7.296;2023-07-02T11:49:34;19.90;92.80
4399;DHT22;2213;49.720;7.296;2023-07-02T11:52:04;19.90;93.20
4399;DHT22;2213;49.720;7.296;2023-07-02T11:54:32;19.90;93.20
4399;DHT22;2213;49.720;7.296;2023-07-02T11:57:01;19.90;92.50
4399;DHT22;2213;49.720;7.296;2023-07-02T11:59:30;20.00;92.30
4399;DHT22;2213;49.720;7.296;2023-07-02T12:01:58;20.00;92.10
4399;DHT22;2213;49.720;7.296;2023-07-02T12:04:27;20.20;92.40
4399;DHT22;2213;49.720;7.296;2023-07-02T12:06:57;20.30;91.70
4399;DHT22;2213;49.720;7.296;2023-07-02T12:09:28;20.30;91.70
4399;DHT22;2213;49.720;7.296;2023-07-02T12:11:56;20.20;91.90
4399;DHT22;2213;49.720;7.296;2023-07-02T12:14:25;20.40;91.30
4399;DHT22;2213;49.720;7.296;2023-07-02T12:16:53;20.50;90.40
4399;DHT22;2213;49.720;7.296;2023-07-02T12:19:22;20.50;90.50
4399;DHT22;2213;49.720;7.296;2023-07-02T12:21:50;20.60;89.10
4399;DHT22;2213;49.720;7.296;2023-07-02T12:24:20;20.60;89.90
4399;DHT22;2213;49.720;7.296;2023-07-02T12:26:49;20.60;90.40
4399;DHT22;2213;49.720;7.296;2023-07-02T12:29:17;20.60;90.60
4399;DHT22;2213;49.720;7.296;2023-07-02T12:31:46;20.70;90.40
4399;DHT22;2213;49.720;7.296;2023-07-02T12:34:15;20.70;90.10
4399;DHT22;2213;49.720;7.296;2023-07-02T12:36:44;20.80;90.20
4399;DHT22;2213;49.720;7.296;2023-07-02T12:39:12;20.70;90.20
4399;DHT22;2213;49.720;7.296;2023-07-02T12:41:46;20.70;90.50
4399;DHT22;2213;49.720;7.296;2023-07-02T12:44:14;20.70;90.50
4399;DHT22;2213;49.720;7.296;2023-07-02T12:46:43;20.70;90.90
4399;DHT22;2213;49.720;7.296;2023-07-02T12:49:12;20.70;90.80
4399;DHT22;2213;49.720;7.296;2023-07-02T12:51:41;20.80;90.70
4399;DHT22;2213;49.720;7.296;2023-07-02T12:54:09;20.80;90.20
4399;DHT22;2213;49.720;7.296;2023-07-02T12:56:39;20.70;90.20
4399;DHT22;2213;49.720;7.296;2023-07-02T12:59:10;20.80;90.10
4399;DHT22;2213;49.720;7.296;2023-07-02T13:01:38;20.90;90.10
4399;DHT22;2213;49.720;7.296;2023-07-02T13:04:08;20.80;90.30
4399;DHT22;2213;49.720;7.296;2023-07-02T13:06:37;20.80;90.10
4399;DHT22;2213;49.720;7.296;2023-07-02T13:09:07;20.90;90.90
4399;DHT22;2213;49.720;7.296;2023-07-02T13:11:36;20.90;90.10
4399;DHT22;2213;49.720;7.296;2023-07-02T13:14:05;21.00;90.40
4399;DHT22;2213;49.720;7.296;2023-07-02T13:16:36;21.00;90.10
4399;DHT22;2213;49.720;7.296;2023-07-02T13:19:04;21.00;90.40
4399;DHT22;2213;49.720;7.296;2023-07-02T13:21:34;21.10;90.20
4399;DHT22;2213;49.720;7.296;2023-07-02T13:24:03;21.00;89.30
4399;DHT22;2213;49.720;7.296;2023-07-02T13:26:31;21.10;90.00
4399;DHT22;2213;49.720;7.296;2023-07-02T13:29:00;21.10;90.10
4399;DHT22;2213;49.720;7.296;2023-07-02T13:31:29;21.00;90.10
4399;DHT22;2213;49.720;7.296;2023-07-02T13:34:00;20.90;90.40
4399;DHT22;2213;49.720;7.296;2023-07-02T13:36:29;20.90;90.40
4399;DHT22;2213;49.720;7.296;2023-07-02T13:38:58;21.00;90.20
4399;DHT22;2213;49.720;7.296;2023-07-02T13:41:26;21.00;88.80
4399;DHT22;2213;49.720;7.296;2023-07-02T13:43:57;21.10;88.20
4399;DHT22;2213;49.720;7.296;2023-07-02T13:46:25;21.30;88.30
4399;DHT22;2213;49.720;7.296;2023-07-02T13:48:54;21.30;88.60
4399;DHT22;2213;49.720;7.296;2023-07-02T13:51:24;21.30;89.20
4399;DHT22;2213;49.720;7.296;2023-07-02T13:53:54;21.30;88.90
4399;DHT22;2213;49.720;7.296;2023-07-02T13:56:22;21.40;89.00
4399;DHT22;2213;49.720;7.296;2023-07-02T13:59:04;21.50;87.40
4399;DHT22;2213;49.720;7.296;2023-07-02T14:01:33;21.40;86.90
4399;DHT22;2213;49.720;7.296;2023-07-02T14:04:03;21.40;86.60
4399;DHT22;2213;49.720;7.296;2023-07-02T14:06:32;21.50;87.30
4399;DHT22;2213;49.720;7.296;2023-07-02T14:09:01;21.50;88.20
4399;DHT22;2213;49.720;7.296;2023-07-02T14:11:31;21.70;88.10
4399;DHT22;2213;49.720;7.296;2023-07-02T14:14:00;21.80;87.90
4399;DHT22;2213;49.720;7.296;2023-07-02T14:16:31;21.90;87.00
4399;DHT22;2213;49.720;7.296;2023-07-02T14:19:00;21.70;86.40
4399;DHT22;2213;49.720;7.296;2023-07-02T14:21:30;21.70;86.80
4399;DHT22;2213;49.720;7.296;2023-07-02T14:23:58;21.70;86.40
4399;DHT22;2213;49.720;7.296;2023-07-02T14:26:27;21.80;87.10
4399;DHT22;2213;49.720;7.296;2023-07-02T14:28:57;21.80;87.60
4399;DHT22;2213;49.720;7.296;2023-07-02T14:31:26;21.80;87.00
4399;DHT22;2213;49.720;7.296;2023-07-02T14:33:56;21.60;87.60
4399;DHT22;2213;49.720;7.296;2023-07-02T14:36:25;21.70;87.80
4399;DHT22;2213;49.720;7.296;2023-07-02T14:38:54;21.90;88.30
4399;DHT22;2213;49.720;7.296;2023-07-02T14:41:22;22.10;87.70
4399;DHT22;2213;49.720;7.296;2023-07-02T14:43:51;22.10;86.30
4399;DHT22;2213;49.720;7.296;2023-07-02T14:46:19;22.20;86.00
4399;DHT22;2213;49.720;7.296;2023-07-02T14:48:49;22.30;85.00
4399;DHT22;2213;49.720;7.296;2023-07-02T14:51:19;22.40;86.00
4399;DHT22;2213;49.720;7.296;2023-07-02T14:53:49;22.40;85.70
4399;DHT22;2213;49.720;7.296;2023-07-02T14:56:21;22.30;85.80
4399;DHT22;2213;49.720;7.296;2023-07-02T14:58:50;22.50;85.50
4399;DHT22;2213;49.720;7.296;2023-07-02T15:01:19;22.50;85.20
4399;DHT22;2213;49.720;7.296;2023-07-02T15:03:48;22.60;85.10
4399;DHT22;2213;49.720;7.296;2023-07-02T15:06:19;22.60;84.50
4399;DHT22;2213;49.720;7.296;2023-07-02T15:08:48;22.60;84.50
4399;DHT22;2213;49.720;7.296;2023-07-02T15:11:18;22.60;84.80
4399;DHT22;2213;49.720;7.296;2023-07-02T15:13:48;22.60;84.80
4399;DHT22;2213;49.720;7.296;2023-07-02T15:16:17;22.60;85.00
4399;DHT22;2213;49.720;7.296;2023-07-02T15:18:48;22.80;84.80
4399;DHT22;2213;49.720;7.296;2023-07-02T15:21:21;22.80;84.70
4399;DHT22;2213;49.720;7.296;2023-07-02T15:23:51;22.80;84.50
4399;DHT22;2213;49.720;7.296;2023-07-02T15:26:20;22.70;83.80
4399;DHT22;2213;49.720;7.296;2023-07-02T15:28:48;22.70;84.40
4399;DHT22;2213;49.720;7.296;2023-07-02T15:31:17;22.80;84.70
4399;DHT22;2213;49.720;7.296;2023-07-02T15:33:48;22.60;84.10
4399;DHT22;2213;49.720;7.296;2023-07-02T15:36:21;22.70;85.10
4399;DHT22;2213;49.720;7.296;2023-07-02T15:38:50;22.70;84.50
4399;DHT22;2213;49.720;7.296;2023-07-02T15:41:19;22.60;84.00
4399;DHT22;2213;49.720;7.296;2023-07-02T15:43:49;22.60;83.90
4399;DHT22;2213;49.720;7.296;2023-07-02T15:46:20;22.60;84.10
4399;DHT22;2213;49.720;7.296;2023-07-02T15:48:49;22.60;84.60
4399;DHT22;2213;49.720;7.296;2023-07-02T15:51:22;22.50;84.10
4399;DHT22;2213;49.720;7.296;2023-07-02T15:53:52;22.50;84.70
4399;DHT22;2213;49.720;7.296;2023-07-02T15:56:22;22.50;84.70
4399;DHT22;2213;49.720;7.296;2023-07-02T15:58:52;22.60;84.00
4399;DHT22;2213;49.720;7.296;2023-07-02T16:01:21;22.40;84.20
4399;DHT22;2213;49.720;7.296;2023-07-02T16:03:50;22.50;85.10
4399;DHT22;2213;49.720;7.296;2023-07-02T16:06:19;22.40;84.80
4399;DHT22;2213;49.720;7.296;2023-07-02T16:08:51;22.50;84.80
4399;DHT22;2213;49.720;7.296;2023-07-02T16:11:20;22.50;84.90
4399;DHT22;2213;49.720;7.296;2023-07-02T16:13:48;22.50;85.70
4399;DHT22;2213;49.720;7.296;2023-07-02T16:16:19;22.30;84.80
4399;DHT22;2213;49.720;7.296;2023-07-02T16:18:48;22.20;85.50